createdAt,value
2022-08-18T00:02:14.517Z,16.83
2022-08-18T00:04:48.531Z,20.13
2022-08-18T00:07:42.244Z,19.70
2022-08-18T00:10:18.593Z,14.82
2022-08-18T00:12:45.602Z,10.80
2022-08-18T00:15:15.155Z,10.23
2022-08-18T00:17:42.445Z,11.75
2022-08-18T00:20:16.058Z,15.35
2022-08-18T00:22:42.905Z,13.43
2022-08-18T00:25:14.019Z,11.73
2022-08-18T00:27:41.523Z,12.32
2022-08-18T00:30:12.170Z,12.45
2022-08-18T00:32:42.706Z,9.07
2022-08-18T00:35:13.773Z,8.70
2022-08-18T00:37:41.342Z,11.38
2022-08-18T00:40:12.263Z,12.18
2022-08-18T00:42:46.167Z,7.00
2022-08-18T00:45:17.825Z,9.05
2022-08-18T00:47:45.388Z,9.40
2022-08-18T00:50:16.278Z,10.50
2022-08-18T00:52:52.584Z,8.45
2022-08-18T00:55:21.621Z,10.10
2022-08-18T00:57:51.522Z,10.45
2022-08-18T01:00:18.823Z,8.05
2022-08-18T01:02:51.444Z,11.15
2022-08-18T01:05:24.346Z,9.07
2022-08-18T01:07:51.459Z,8.63
2022-08-18T01:10:22.470Z,6.60
2022-08-18T01:12:55.701Z,8.77
2022-08-18T01:15:28.731Z,8.13
2022-08-18T01:18:17.473Z,6.60
2022-08-18T01:21:24.742Z,6.75
2022-08-18T01:23:53.706Z,7.22
2022-08-18T01:26:22.767Z,7.18
2022-08-18T01:28:49.736Z,6.10
2022-08-18T01:31:55.418Z,6.43
2022-08-18T01:34:24.841Z,6.95
2022-08-18T01:36:53.056Z,6.43
2022-08-18T01:41:17.334Z,5.13
2022-08-18T01:42:07.456Z,7.70
2022-08-18T01:44:34.487Z,5.78
2022-08-18T01:47:01.170Z,10.15
2022-08-18T01:49:28.912Z,6.63
2022-08-18T01:51:55.833Z,7.47
2022-08-18T01:54:23.017Z,5.82
2022-08-18T01:56:49.736Z,8.25
2022-08-18T01:59:16.496Z,8.25
2022-08-18T02:01:50.380Z,7.80
2022-08-18T02:04:37.619Z,5.45
2022-08-18T02:07:07.864Z,5.90
2022-08-18T02:09:37.509Z,6.13
2022-08-18T02:12:05.993Z,5.93
2022-08-18T02:14:33.676Z,6.97
2022-08-18T02:17:02.792Z,6.85
2022-08-18T02:19:47.331Z,6.10
2022-08-18T02:22:18.525Z,5.28
2022-08-18T02:24:45.381Z,5.30
2022-08-18T02:27:14.150Z,6.67
2022-08-18T02:29:41.102Z,4.50
2022-08-18T02:32:08.713Z,5.20
2022-08-18T02:34:36.479Z,7.10
2022-08-18T02:37:03.393Z,5.93
2022-08-18T02:39:30.555Z,4.60
2022-08-18T02:41:57.325Z,8.38
2022-08-18T02:44:24.063Z,6.38
2022-08-18T02:46:54.841Z,8.98
2022-08-18T02:49:22.055Z,4.70
2022-08-18T02:51:51.105Z,8.82
2022-08-18T02:54:20.570Z,9.25
2022-08-18T02:56:47.673Z,8.65
2022-08-18T02:59:19.996Z,5.00
2022-08-18T03:01:50.896Z,6.05
2022-08-18T03:04:26.677Z,7.22
2022-08-18T03:06:56.537Z,5.23
2022-08-18T03:09:23.260Z,7.28
2022-08-18T03:11:49.971Z,7.72
2022-08-18T03:14:16.934Z,9.73
2022-08-18T03:16:53.841Z,6.77
2022-08-18T03:19:26.151Z,4.57
2022-08-18T03:21:54.978Z,6.97
2022-08-18T03:24:24.008Z,6.73
2022-08-18T03:26:52.306Z,5.77
2022-08-18T03:29:19.980Z,7.28
2022-08-18T03:31:48.910Z,5.57
2022-08-18T03:34:19.774Z,6.25
2022-08-18T03:36:47.726Z,8.37
2022-08-18T03:39:14.554Z,7.28
2022-08-18T03:41:59.614Z,6.88
2022-08-18T03:44:33.823Z,6.95
2022-08-18T03:47:03.047Z,9.00
2022-08-18T03:49:31.203Z,5.47
2022-08-18T03:52:00.876Z,6.07
2022-08-18T03:54:32.338Z,7.43
2022-08-18T03:57:00.358Z,6.43
2022-08-18T03:59:28.736Z,8.10
2022-08-18T04:01:55.751Z,7.37
2022-08-18T04:04:26.538Z,9.15
2022-08-18T04:07:04.657Z,10.25
2022-08-18T04:09:33.287Z,5.13
2022-08-18T04:12:15.253Z,6.85
2022-08-18T04:14:43.847Z,5.45
2022-08-18T04:17:10.669Z,8.73
2022-08-18T04:19:38.024Z,8.13
2022-08-18T04:22:05.807Z,7.88
2022-08-18T04:24:34.632Z,9.27
2022-08-18T04:27:04.927Z,5.00
2022-08-18T04:29:32.101Z,8.45
2022-08-18T04:32:04.732Z,10.20
2022-08-18T04:34:35.833Z,10.02
2022-08-18T04:37:03.398Z,6.18
2022-08-18T04:39:30.993Z,5.18
2022-08-18T04:41:59.355Z,5.87
2022-08-18T04:44:26.106Z,8.52
2022-08-18T04:46:54.226Z,6.93
2022-08-18T04:49:25.571Z,7.17
2022-08-18T04:52:38.972Z,6.82
2022-08-18T04:54:59.217Z,7.30
2022-08-18T04:57:26.268Z,6.00
2022-08-18T04:59:53.446Z,10.83
2022-08-18T05:02:21.618Z,12.17
2022-08-18T05:04:48.561Z,6.90
2022-08-18T05:07:19.002Z,8.10
2022-08-18T05:09:46.583Z,7.38
2022-08-18T05:12:15.465Z,8.35
2022-08-18T05:14:48.299Z,5.60
2022-08-18T05:17:16.166Z,6.07
2022-08-18T05:19:44.589Z,6.85
2022-08-18T05:22:17.834Z,10.60
2022-08-18T05:24:46.266Z,12.45
2022-08-18T05:27:13.623Z,5.97
2022-08-18T05:29:41.538Z,8.15
2022-08-18T05:32:37.340Z,5.47
2022-08-18T05:35:07.344Z,7.13
2022-08-18T05:38:16.896Z,7.68
2022-08-18T05:40:46.194Z,13.02
2022-08-18T05:43:15.480Z,6.38
2022-08-18T05:45:42.464Z,8.00
2022-08-18T05:48:09.120Z,9.02
2022-08-18T05:50:37.911Z,7.63
2022-08-18T05:53:13.770Z,11.75
2022-08-18T05:56:15.799Z,9.55
2022-08-18T05:58:49.475Z,10.43
2022-08-18T06:01:22.680Z,11.20
2022-08-18T06:03:59.731Z,8.27
2022-08-18T06:06:29.781Z,11.32
2022-08-18T06:09:02.297Z,13.80
2022-08-18T06:11:28.962Z,13.00
2022-08-18T06:13:59.466Z,10.60
2022-08-18T06:16:33.026Z,9.63
2022-08-18T06:19:39.406Z,9.60
2022-08-18T06:22:24.853Z,13.80
2022-08-18T06:25:20.022Z,13.73
2022-08-18T06:28:00.336Z,11.10
2022-08-18T06:30:40.540Z,11.40
2022-08-18T06:33:30.271Z,9.68
2022-08-18T06:36:14.359Z,9.50
2022-08-18T06:38:57.699Z,10.80
2022-08-18T06:41:43.850Z,11.43
2022-08-18T06:44:19.767Z,12.38
2022-08-18T06:47:04.340Z,10.35
2022-08-18T06:49:54.868Z,8.65
2022-08-18T06:52:31.505Z,8.93
2022-08-18T06:55:02.226Z,8.60
2022-08-18T06:57:38.218Z,7.25
2022-08-18T07:00:17.104Z,9.55
2022-08-18T07:02:51.342Z,7.72
2022-08-18T07:05:29.177Z,5.97
2022-08-18T07:08:11.635Z,8.98
2022-08-18T07:10:47.830Z,5.95
2022-08-18T07:13:19.278Z,8.90
2022-08-18T07:15:48.196Z,8.13
2022-08-18T07:18:22.673Z,6.50
2022-08-18T07:20:56.422Z,8.20
2022-08-18T07:23:28.264Z,8.30
2022-08-18T07:26:03.976Z,10.43
2022-08-18T07:28:32.754Z,11.43
2022-08-18T07:31:17.269Z,10.45
2022-08-18T07:33:51.698Z,10.77
2022-08-18T07:36:23.080Z,10.30
2022-08-18T07:38:54.733Z,10.77
2022-08-18T07:41:38.578Z,13.15
2022-08-18T07:44:18.625Z,12.38
2022-08-18T07:47:00.618Z,12.43
2022-08-18T07:49:35.325Z,15.60
2022-08-18T07:52:36.263Z,10.43
2022-08-18T07:55:27.055Z,10.48
2022-08-18T07:58:32.633Z,10.88
2022-08-18T08:01:17.258Z,11.52
2022-08-18T08:03:56.703Z,14.95
2022-08-18T08:06:39.146Z,10.65
2022-08-18T08:09:26.165Z,12.52
2022-08-18T08:12:07.339Z,11.60
2022-08-18T08:14:50.055Z,10.60
2022-08-18T08:17:25.242Z,11.98
2022-08-18T08:20:08.608Z,10.68
2022-08-18T08:23:15.119Z,10.68
2022-08-18T08:26:11.606Z,9.45
2022-08-18T08:28:52.484Z,12.18
2022-08-18T08:31:36.752Z,12.20
2022-08-18T08:34:34.614Z,9.73
2022-08-18T08:37:05.803Z,10.77
2022-08-18T08:40:06.060Z,11.23
2022-08-18T08:42:58.732Z,10.38
2022-08-18T08:45:33.266Z,10.50
2022-08-18T08:48:26.578Z,12.60
2022-08-18T08:51:12.078Z,16.98
2022-08-18T08:53:47.216Z,15.70
2022-08-18T08:56:18.032Z,11.38
2022-08-18T08:58:59.360Z,11.60
2022-08-18T09:01:48.147Z,17.77
2022-08-18T09:04:17.863Z,11.30
2022-08-18T09:06:45.313Z,13.88
2022-08-18T09:09:49.343Z,12.52
2022-08-18T09:12:57.817Z,10.05
2022-08-18T09:15:42.763Z,12.68
2022-08-18T09:18:39.286Z,13.98
2022-08-18T09:21:36.533Z,12.68
2022-08-18T09:24:17.280Z,15.00
2022-08-18T09:27:15.528Z,9.82
2022-08-18T09:29:54.916Z,14.18
2022-08-18T09:35:23.550Z,14.75
2022-08-18T09:38:26.049Z,15.57
2022-08-18T09:41:17.607Z,12.40
2022-08-18T09:44:09.915Z,12.65
2022-08-18T09:46:46.498Z,10.50
2022-08-18T09:49:22.291Z,9.55
2022-08-18T09:51:53.571Z,10.15
2022-08-18T09:54:29.576Z,14.40
2022-08-18T09:57:19.511Z,12.75
2022-08-18T10:00:04.292Z,10.32
2022-08-18T10:02:32.030Z,11.35
2022-08-18T10:05:19.898Z,11.35
2022-08-18T10:07:54.264Z,12.02
2022-08-18T10:11:00.502Z,14.40
2022-08-18T10:13:33.306Z,11.70
2022-08-18T10:16:28.185Z,12.30
2022-08-18T10:19:23.148Z,13.98
2022-08-18T10:21:58.716Z,15.10
2022-08-18T10:24:57.270Z,12.25
2022-08-18T10:27:44.481Z,16.05
2022-08-18T10:30:34.135Z,14.50
2022-08-18T10:33:17.609Z,16.02
2022-08-18T10:35:59.929Z,14.00
2022-08-18T10:38:49.670Z,15.55
2022-08-18T10:41:24.478Z,16.67
2022-08-18T10:43:55.756Z,19.38
2022-08-18T10:46:32.029Z,17.77
2022-08-18T10:49:25.221Z,15.38
2022-08-18T10:52:10.630Z,12.70
2022-08-18T10:58:12.789Z,13.38
2022-08-18T11:01:01.049Z,14.25
2022-08-18T11:04:14.514Z,15.35
2022-08-18T11:06:57.355Z,20.92
2022-08-18T11:09:30.571Z,14.85
2022-08-18T11:12:01.414Z,20.90
2022-08-18T11:14:41.296Z,15.68
2022-08-18T11:17:29.991Z,15.88
2022-08-18T11:19:56.936Z,16.85
2022-08-18T11:22:32.415Z,13.15
2022-08-18T11:25:01.553Z,13.35
2022-08-18T11:27:35.603Z,13.77
2022-08-18T11:30:06.129Z,13.73
2022-08-18T11:32:39.360Z,16.42
2022-08-18T11:35:31.902Z,13.20
2022-08-18T11:38:01.855Z,15.93
2022-08-18T11:46:38.834Z,15.70
2022-08-18T11:49:33.419Z,14.57
2022-08-18T11:52:15.260Z,14.77
2022-08-18T11:54:53.057Z,13.73
2022-08-18T11:57:46.975Z,12.23
2022-08-18T12:00:43.182Z,11.05
2022-08-18T12:03:19.659Z,14.27
2022-08-18T12:05:56.723Z,13.82
2022-08-18T12:08:56.999Z,12.57
2022-08-18T12:11:32.759Z,19.33
2022-08-18T12:16:51.320Z,14.60
2022-08-18T12:19:22.432Z,16.25
2022-08-18T12:21:56.714Z,19.17
2022-08-18T12:24:36.644Z,20.63
2022-08-18T12:27:21.255Z,26.73
2022-08-18T12:29:50.448Z,20.98
2022-08-18T12:32:41.809Z,26.95
2022-08-18T12:35:09.509Z,23.90
2022-08-18T12:40:26.562Z,24.00
2022-08-18T12:42:55.971Z,28.15
2022-08-18T12:45:24.616Z,28.80
2022-08-18T12:47:51.580Z,31.10
2022-08-18T12:50:19.995Z,32.50
2022-08-18T12:52:57.890Z,31.70
2022-08-18T12:55:43.715Z,33.60
2022-08-18T12:58:12.650Z,33.60
2022-08-18T13:00:41.190Z,37.65
2022-08-18T13:03:08.720Z,31.50
2022-08-18T13:05:37.447Z,32.95
2022-08-18T13:08:12.464Z,26.60
2022-08-18T13:10:46.168Z,34.17
2022-08-18T13:13:15.741Z,35.33
2022-08-18T13:15:44.364Z,34.65
2022-08-18T13:18:27.184Z,26.67
2022-08-18T13:20:55.522Z,31.33
2022-08-18T13:23:25.080Z,35.33
2022-08-18T13:25:52.315Z,34.83
2022-08-18T13:28:30.280Z,29.67
2022-08-18T13:30:58.363Z,31.90
2022-08-18T13:33:55.859Z,28.33
2022-08-18T13:36:12.633Z,31.15
2022-08-18T13:38:43.303Z,25.50
2022-08-18T13:41:15.814Z,29.92
2022-08-18T13:43:47.802Z,24.48
2022-08-18T13:46:18.554Z,26.73
2022-08-18T13:48:46.723Z,27.83
2022-08-18T13:51:20.791Z,26.38
2022-08-18T13:53:59.078Z,25.40
2022-08-18T13:56:36.229Z,29.38
2022-08-18T13:59:06.634Z,21.67
2022-08-18T14:01:51.405Z,20.08
2022-08-18T14:04:20.839Z,25.77
2022-08-18T14:06:56.485Z,22.20
2022-08-18T14:09:27.862Z,23.30
2022-08-18T14:12:23.247Z,23.23
2022-08-18T14:14:55.705Z,24.77
2022-08-18T14:17:26.432Z,21.10
2022-08-18T14:20:15.522Z,28.70
2022-08-18T14:23:21.475Z,22.98
2022-08-18T14:26:09.271Z,21.27
2022-08-18T14:28:38.447Z,20.08
2022-08-18T14:31:08.683Z,23.13
2022-08-18T14:33:51.787Z,23.63
2022-08-18T14:36:29.502Z,21.92
2022-08-18T14:38:57.892Z,24.70
2022-08-18T14:41:25.560Z,19.88
2022-08-18T14:44:12.924Z,21.08
2022-08-18T14:46:41.015Z,23.35
2022-08-18T14:49:08.218Z,22.80
2022-08-18T14:51:36.666Z,25.25
2022-08-18T14:54:03.854Z,19.33
2022-08-18T14:56:36.486Z,23.42
2022-08-18T14:59:07.749Z,21.17
2022-08-18T15:01:42.664Z,19.25
2022-08-18T15:04:19.055Z,23.15
2022-08-18T15:06:55.936Z,19.42
2022-08-18T15:09:26.895Z,26.40
2022-08-18T15:11:56.568Z,24.58
2022-08-18T15:14:26.660Z,22.83
2022-08-18T15:17:11.914Z,23.42
2022-08-18T15:19:59.888Z,20.20
2022-08-18T15:22:47.793Z,22.58
2022-08-18T15:25:33.895Z,22.67
2022-08-18T15:28:00.921Z,20.90
2022-08-18T15:30:28.703Z,19.05
2022-08-18T15:32:55.794Z,24.00
2022-08-18T15:35:22.570Z,21.35
2022-08-18T15:37:51.155Z,21.02
2022-08-18T15:40:30.793Z,31.80
2022-08-18T15:43:09.554Z,22.92
2022-08-18T15:45:43.348Z,21.00
2022-08-18T15:48:25.333Z,26.33
2022-08-18T15:50:53.636Z,20.08
2022-08-18T15:53:25.474Z,23.98
2022-08-18T15:55:57.221Z,21.95
2022-08-18T15:58:26.850Z,31.25
2022-08-18T16:00:58.786Z,28.35
2022-08-18T16:03:26.035Z,25.25
2022-08-18T16:05:54.566Z,27.27
2022-08-18T16:08:23.853Z,29.67
2022-08-18T16:10:51.758Z,28.52
2022-08-18T16:13:19.315Z,27.92
2022-08-18T16:15:48.259Z,26.08
2022-08-18T16:18:17.384Z,30.55
2022-08-18T16:20:44.539Z,31.17
2022-08-18T16:23:12.461Z,37.50
2022-08-18T16:25:40.113Z,38.72
2022-08-18T16:28:07.613Z,36.42
2022-08-18T16:30:36.300Z,41.53
2022-08-18T16:33:06.435Z,37.38
2022-08-18T16:35:35.513Z,36.72
2022-08-18T16:38:05.184Z,34.83
2022-08-18T16:40:32.103Z,36.20
2022-08-18T16:43:00.907Z,33.58
2022-08-18T16:45:28.420Z,36.47
2022-08-18T16:47:55.579Z,32.67
2022-08-18T16:50:23.543Z,29.88
2022-08-18T16:52:50.254Z,27.42
2022-08-18T16:55:17.055Z,27.23
2022-08-18T16:58:04.796Z,25.58
2022-08-18T17:00:54.436Z,31.08
2022-08-18T17:03:41.940Z,26.63
2022-08-18T17:06:11.679Z,25.10
2022-08-18T17:08:39.453Z,29.35
2022-08-18T17:11:13.519Z,32.22
2022-08-18T17:13:41.835Z,26.48
2022-08-18T17:16:10.103Z,25.35
2022-08-18T17:18:37.413Z,27.65
2022-08-18T17:21:06.724Z,26.85
2022-08-18T17:23:34.497Z,24.80
2022-08-18T17:26:09.043Z,22.83
2022-08-18T17:28:50.352Z,26.92
2022-08-18T17:31:24.648Z,24.15
2022-08-18T17:33:57.280Z,22.00
2022-08-18T17:36:35.541Z,19.70
2022-08-18T17:39:06.428Z,21.50
2022-08-18T17:41:54.760Z,19.13
2022-08-18T17:44:21.625Z,17.92
2022-08-18T17:47:02.325Z,17.38
2022-08-18T17:49:54.391Z,21.13
2022-08-18T17:52:45.878Z,20.08
2022-08-18T17:55:39.236Z,18.98
2022-08-18T17:58:25.365Z,22.90
2022-08-18T18:00:52.649Z,20.00
2022-08-18T18:03:19.415Z,24.05
2022-08-18T18:06:02.069Z,22.60
2022-08-18T18:09:00.226Z,22.55
2022-08-18T18:11:47.687Z,16.77
2022-08-18T18:14:26.608Z,24.25
2022-08-18T18:17:06.438Z,21.55
2022-08-18T18:19:46.565Z,20.33
2022-08-18T18:22:28.394Z,22.40
2022-08-18T18:25:06.585Z,23.10
2022-08-18T18:27:36.970Z,24.80
2022-08-18T18:30:09.612Z,19.58
2022-08-18T18:32:59.069Z,19.23
2022-08-18T18:35:53.315Z,18.02
2022-08-18T18:38:38.055Z,21.63
2022-08-18T18:41:20.273Z,20.80
2022-08-18T18:43:51.502Z,20.23
2022-08-18T18:46:35.257Z,21.55
2022-08-18T18:49:27.435Z,23.98
2022-08-18T18:52:33.666Z,19.58
2022-08-18T18:55:15.242Z,20.17
2022-08-18T18:57:51.121Z,18.55
2022-08-18T19:00:30.328Z,25.13
2022-08-18T19:03:03.682Z,25.23
2022-08-18T19:05:45.776Z,23.55
2022-08-18T19:08:28.433Z,19.83
2022-08-18T19:11:19.410Z,22.02
2022-08-18T19:13:56.038Z,21.08
2022-08-18T19:16:36.142Z,21.75
2022-08-18T19:19:36.750Z,18.17
2022-08-18T19:22:19.431Z,22.10
2022-08-18T19:24:54.341Z,20.25
2022-08-18T19:27:29.967Z,23.70
2022-08-18T19:30:01.559Z,21.95
2022-08-18T19:32:37.055Z,22.85
2022-08-18T19:35:11.858Z,23.10
2022-08-18T19:38:04.628Z,22.65
2022-08-18T19:40:51.270Z,19.30
2022-08-18T19:43:24.900Z,23.15
2022-08-18T19:46:00.550Z,24.95
2022-08-18T19:48:43.320Z,32.20
2022-08-18T19:51:25.695Z,22.77
2022-08-18T19:54:04.233Z,24.98
2022-08-18T19:57:08.840Z,22.50
2022-08-18T19:59:51.266Z,24.20
2022-08-18T20:02:29.367Z,24.77
2022-08-18T20:05:17.862Z,24.45
2022-08-18T20:07:55.459Z,24.85
2022-08-18T20:10:31.732Z,22.15
2022-08-18T20:13:20.577Z,27.38
2022-08-18T20:16:10.568Z,24.00
2022-08-18T20:18:49.835Z,24.02
2022-08-18T20:21:20.320Z,24.08
2022-08-18T20:23:56.518Z,23.05
2022-08-18T20:26:42.559Z,23.98
2022-08-18T20:29:41.435Z,27.13
2022-08-18T20:32:32.057Z,24.70
2022-08-18T20:35:32.161Z,26.60
2022-08-18T20:38:28.257Z,27.30
2022-08-18T20:40:55.668Z,27.63
2022-08-18T20:43:28.354Z,29.27
2022-08-18T20:46:43.080Z,22.98
2022-08-18T20:49:25.304Z,26.30
2022-08-18T20:55:04.630Z,26.52
2022-08-18T20:57:40.395Z,26.15
2022-08-18T21:00:26.813Z,27.98
2022-08-18T21:02:57.061Z,23.23
2022-08-18T21:05:31.677Z,25.70
2022-08-18T21:08:02.864Z,24.92
2022-08-18T21:10:31.679Z,26.80
2022-08-18T21:13:01.112Z,22.50
2022-08-18T21:15:35.464Z,28.35
2022-08-18T21:18:04.317Z,33.22
2022-08-18T21:20:33.108Z,26.73
2022-08-18T21:23:08.566Z,26.20
2022-08-18T21:25:36.054Z,19.98
2022-08-18T21:28:05.670Z,25.05
2022-08-18T21:30:32.593Z,22.92
2022-08-18T21:32:59.944Z,24.50
2022-08-18T21:35:33.937Z,23.10
2022-08-18T21:38:04.126Z,22.30
2022-08-18T21:40:46.947Z,23.35
2022-08-18T21:43:34.710Z,27.65
2022-08-18T21:46:02.140Z,24.25
2022-08-18T21:48:31.615Z,27.95
2022-08-18T21:51:00.464Z,24.48
2022-08-18T21:53:31.189Z,28.80
2022-08-18T21:55:59.620Z,23.65
2022-08-18T21:58:39.176Z,26.83
2022-08-18T22:01:29.226Z,29.25
2022-08-18T22:04:02.859Z,32.22
2022-08-18T22:06:40.497Z,27.42
2022-08-18T22:09:28.752Z,28.00
2022-08-18T22:12:54.843Z,25.90
2022-08-18T22:15:39.354Z,25.52
2022-08-18T22:18:40.802Z,23.58
2022-08-18T22:21:33.078Z,27.88
2022-08-18T22:24:18.864Z,30.88
2022-08-18T22:26:49.036Z,25.70
2022-08-18T22:29:45.775Z,31.75
2022-08-18T22:32:13.743Z,31.33
2022-08-18T22:34:40.735Z,24.88
2022-08-18T22:37:20.688Z,30.48
2022-08-18T22:39:55.136Z,37.47
2022-08-18T22:42:25.756Z,27.75
2022-08-18T22:44:52.645Z,31.25
2022-08-18T22:47:20.286Z,29.10
2022-08-18T22:49:47.445Z,22.45
2022-08-18T22:52:30.136Z,22.20
2022-08-18T22:54:59.260Z,25.60
2022-08-18T22:57:29.013Z,32.22
2022-08-18T22:59:56.781Z,33.10
2022-08-18T23:02:24.921Z,28.75
2022-08-18T23:04:52.162Z,25.45
2022-08-18T23:07:23.089Z,24.40
2022-08-18T23:09:49.918Z,27.35
2022-08-18T23:12:16.765Z,28.15
2022-08-18T23:14:45.812Z,25.50
2022-08-18T23:17:14.095Z,26.50
2022-08-18T23:19:40.971Z,26.83
2022-08-18T23:22:09.108Z,26.08
2022-08-18T23:24:37.690Z,27.02
2022-08-18T23:27:05.659Z,24.38
2022-08-18T23:29:36.604Z,25.25
2022-08-18T23:32:07.095Z,27.27
2022-08-18T23:34:35.687Z,31.45
2022-08-18T23:37:04.075Z,32.22
2022-08-18T23:39:33.579Z,29.63
2022-08-18T23:42:01.618Z,29.33
2022-08-18T23:44:28.562Z,27.77
2022-08-18T23:46:57.984Z,25.83
2022-08-18T23:49:28.654Z,31.33
2022-08-18T23:51:56.168Z,32.40
2022-08-18T23:54:27.426Z,27.10
2022-08-18T23:56:54.335Z,28.63
2022-08-18T23:59:22.393Z,30.50
